createdAt,value
2022-12-19T00:00:05.614Z,101832.47
2022-12-19T00:00:39.510Z,101836.75
2022-12-19T00:01:18.743Z,101832.19
2022-12-19T00:01:50.205Z,101829.50
2022-12-19T00:02:21.756Z,101815.31
2022-12-19T00:02:53.312Z,101823.88
2022-12-19T00:03:24.998Z,101814.75
2022-12-19T00:04:07.641Z,101811.53
2022-12-19T00:04:40.218Z,101813.16
2022-12-19T00:05:11.660Z,101807.25
2022-12-19T00:05:43.176Z,101808.88
2022-12-19T00:06:15.777Z,101817.44
2022-12-19T00:06:47.195Z,101807.78
2022-12-19T00:07:18.601Z,101805.09
2022-12-19T00:07:50.013Z,101799.75
2022-12-19T00:08:21.323Z,101816.63
2022-12-19T00:08:54.147Z,101809.91
2022-12-19T00:09:26.465Z,101809.13
2022-12-19T00:09:57.833Z,101812.59
2022-12-19T00:10:29.175Z,101807.50
2022-12-19T00:11:02.152Z,101814.19
2022-12-19T00:11:33.682Z,101812.59
2022-12-19T00:12:05.222Z,101815.28
2022-12-19T00:12:38.087Z,101811.50
2022-12-19T00:13:09.615Z,101806.44
2022-12-19T00:13:41.680Z,101812.31
2022-12-19T00:14:13.053Z,101803.47
2022-12-19T00:14:44.503Z,101813.41
2022-12-19T00:15:15.970Z,101814.19
2022-12-19T00:15:47.376Z,101813.91
2022-12-19T00:16:24.309Z,101811.22
2022-12-19T00:16:55.745Z,101810.44
2022-12-19T00:17:27.090Z,101808.56
2022-12-19T00:17:58.486Z,101815.78
2022-12-19T00:18:30.171Z,101816.31
2022-12-19T00:19:01.618Z,101807.47
2022-12-19T00:19:32.987Z,101810.97
2022-12-19T00:20:04.686Z,101804.00
2022-12-19T00:20:36.235Z,101802.91
2022-12-19T00:21:09.390Z,101812.28
2022-12-19T00:21:40.956Z,101807.19
2022-12-19T00:22:12.343Z,101808.00
2022-12-19T00:22:43.708Z,101811.75
2022-12-19T00:23:15.103Z,101809.63
2022-12-19T00:23:47.503Z,101821.41
2022-12-19T00:24:21.428Z,101821.41
2022-12-19T00:24:53.225Z,101821.41
2022-12-19T00:25:24.634Z,101819.53
2022-12-19T00:26:10.402Z,101823.00
2022-12-19T00:26:41.711Z,101823.78
2022-12-19T00:27:13.080Z,101822.19
2022-12-19T00:27:44.651Z,101821.09
2022-12-19T00:28:16.086Z,101833.72
2022-12-19T00:28:52.621Z,101830.72
2022-12-19T00:29:24.065Z,101822.69
2022-12-19T00:29:55.390Z,101821.63
2022-12-19T00:30:26.722Z,101828.06
2022-12-19T00:31:00.831Z,101816.25
2022-12-19T00:31:34.584Z,101812.75
2022-12-19T00:32:06.056Z,101808.22
2022-12-19T00:32:37.867Z,101808.22
2022-12-19T00:33:09.283Z,101800.16
2022-12-19T00:33:43.396Z,101795.59
2022-12-19T00:34:15.679Z,101789.16
2022-12-19T00:34:47.028Z,101797.47
2022-12-19T00:35:18.417Z,101790.75
2022-12-19T00:35:49.852Z,101784.06
2022-12-19T00:36:26.758Z,101784.31
2022-12-19T00:36:58.175Z,101785.09
2022-12-19T00:37:29.666Z,101785.09
2022-12-19T00:38:01.122Z,101789.69
2022-12-19T00:38:32.951Z,101782.44
2022-12-19T00:39:07.772Z,101781.34
2022-12-19T00:39:39.618Z,101785.91
2022-12-19T00:40:11.446Z,101779.75
2022-12-19T00:40:42.756Z,101777.34
2022-12-19T00:41:19.962Z,101784.03
2022-12-19T00:41:51.383Z,101792.06
2022-12-19T00:42:22.778Z,101785.91
2022-12-19T00:42:54.112Z,101786.72
2022-12-19T00:43:26.751Z,101795.84
2022-12-19T00:44:00.678Z,101787.22
2022-12-19T00:44:32.246Z,101790.19
2022-12-19T00:45:03.927Z,101795.28
2022-12-19T00:45:38.404Z,101791.50
2022-12-19T00:46:12.992Z,101786.66
2022-12-19T00:46:51.514Z,101789.34
2022-12-19T00:47:24.391Z,101790.16
2022-12-19T00:47:55.746Z,101787.47
2022-12-19T00:48:27.055Z,101785.59
2022-12-19T00:48:59.296Z,101782.63
2022-12-19T00:49:30.658Z,101781.03
2022-12-19T00:50:03.903Z,101785.03
2022-12-19T00:50:35.249Z,101776.19
2022-12-19T00:51:10.958Z,101773.50
2022-12-19T00:51:42.322Z,101773.22
2022-12-19T00:52:13.747Z,101774.28
2022-12-19T00:52:45.078Z,101774.50
2022-12-19T00:53:16.462Z,101773.22
2022-12-19T00:53:49.447Z,101766.19
2022-12-19T00:54:21.267Z,101761.91
2022-12-19T00:54:52.993Z,101759.72
2022-12-19T00:55:24.423Z,101745.00
2022-12-19T00:55:56.433Z,101742.56
2022-12-19T00:56:33.493Z,101747.91
2022-12-19T00:57:09.378Z,101736.38
2022-12-19T00:57:40.897Z,101742.56
2022-12-19T00:58:12.198Z,101737.97
2022-12-19T00:58:47.176Z,101741.47
2022-12-19T00:59:26.316Z,101737.97
2022-12-19T00:59:58.288Z,101740.38
2022-12-19T01:00:29.599Z,101739.31
2022-12-19T01:01:18.756Z,101733.13
2022-12-19T01:01:50.387Z,101735.53
2022-12-19T01:02:21.902Z,101735.53
2022-12-19T01:02:53.528Z,101736.34
2022-12-19T01:03:26.067Z,101737.94
2022-12-19T01:04:28.158Z,101734.44
2022-12-19T01:05:00.149Z,101735.53
2022-12-19T01:05:31.512Z,101742.50
2022-12-19T01:06:03.038Z,101739.03
2022-12-19T01:06:34.794Z,101741.41
2022-12-19T01:07:08.073Z,101734.44
2022-12-19T01:07:39.480Z,101744.09
2022-12-19T01:08:10.890Z,101726.13
2022-12-19T01:08:42.266Z,101728.81
2022-12-19T01:09:14.071Z,101729.09
2022-12-19T01:09:45.475Z,101731.19
2022-12-19T01:10:18.068Z,101725.84
2022-12-19T01:10:50.037Z,101727.72
2022-12-19T01:11:43.775Z,101737.38
2022-12-19T01:12:35.480Z,101727.44
2022-12-19T01:13:06.795Z,101728.25
2022-12-19T01:13:39.586Z,101724.75
2022-12-19T01:14:18.972Z,101729.84
2022-12-19T01:14:57.743Z,101729.03
2022-12-19T01:15:39.656Z,101731.72
2022-12-19T01:16:13.584Z,101731.44
2022-12-19T01:16:45.078Z,101736.81
2022-12-19T01:17:16.554Z,101724.47
2022-12-19T01:17:48.954Z,101729.56
2022-12-19T01:18:20.383Z,101728.25
2022-12-19T01:18:51.842Z,101723.69
2022-12-19T01:19:44.343Z,101727.97
2022-12-19T01:20:26.669Z,101725.00
2022-12-19T01:21:02.999Z,101728.75
2022-12-19T01:21:35.830Z,101733.31
2022-12-19T01:22:07.422Z,101730.63
2022-12-19T01:22:38.867Z,101722.06
2022-12-19T01:23:11.218Z,101730.34
2022-12-19T01:23:42.552Z,101730.06
2022-12-19T01:24:14.733Z,101731.63
2022-12-19T01:24:50.298Z,101738.13
2022-12-19T01:25:21.766Z,101733.84
2022-12-19T01:25:55.292Z,101745.84
2022-12-19T01:26:26.618Z,101732.75
2022-12-19T01:26:58.149Z,101737.31
2022-12-19T01:27:31.256Z,101738.13
2022-12-19T01:28:03.219Z,101729.75
2022-12-19T01:28:34.595Z,101725.78
2022-12-19T01:29:05.911Z,101726.59
2022-12-19T01:29:38.692Z,101717.44
2022-12-19T01:30:24.034Z,101732.66
2022-12-19T01:30:56.146Z,101726.50
2022-12-19T01:31:27.696Z,101720.34
2022-12-19T01:32:00.333Z,101716.84
2022-12-19T01:32:35.206Z,101706.91
2022-12-19T01:33:06.848Z,101722.44
2022-12-19T01:33:41.337Z,101719.47
2022-12-19T01:34:14.893Z,101716.81
2022-12-19T01:34:46.302Z,101721.38
2022-12-19T01:35:21.667Z,101705.56
2022-12-19T01:35:53.556Z,101710.91
2022-12-19T01:36:25.141Z,101712.22
2022-12-19T01:36:56.486Z,101711.16
2022-12-19T01:37:27.802Z,101705.25
2022-12-19T01:38:08.185Z,101712.75
2022-12-19T01:38:40.039Z,101712.75
2022-12-19T01:39:30.932Z,101714.84
2022-12-19T01:40:05.760Z,101708.97
2022-12-19T01:40:37.468Z,101702.53
2022-12-19T01:41:10.590Z,101704.69
2022-12-19T01:41:42.128Z,101697.72
2022-12-19T01:42:22.944Z,101704.69
2022-12-19T01:42:54.724Z,101703.09
2022-12-19T01:43:30.300Z,101709.78
2022-12-19T01:44:05.024Z,101711.38
2022-12-19T01:44:36.930Z,101698.53
2022-12-19T01:45:08.435Z,101711.38
2022-12-19T01:45:45.687Z,101698.25
2022-12-19T01:46:17.695Z,101704.13
2022-12-19T01:46:57.485Z,101704.13
2022-12-19T01:47:30.200Z,101701.44
2022-12-19T01:48:04.221Z,101704.13
2022-12-19T01:48:39.949Z,101696.59
2022-12-19T01:49:31.882Z,101707.84
2022-12-19T01:50:03.662Z,101705.16
2022-12-19T01:50:41.424Z,101700.59
2022-12-19T01:51:23.250Z,101693.34
2022-12-19T01:51:58.771Z,101688.72
2022-12-19T01:52:30.364Z,101700.25
2022-12-19T01:53:03.232Z,101694.91
2022-12-19T01:53:48.885Z,101689.25
2022-12-19T01:54:26.903Z,101687.38
2022-12-19T01:54:58.531Z,101683.09
2022-12-19T01:55:30.790Z,101685.47
2022-12-19T01:56:09.825Z,101683.59
2022-12-19T01:56:47.190Z,101688.97
2022-12-19T01:57:20.048Z,101680.09
2022-12-19T01:57:52.361Z,101678.22
2022-12-19T01:58:23.999Z,101679.03
2022-12-19T01:59:05.827Z,101680.63
2022-12-19T01:59:45.800Z,101681.41
2022-12-19T02:00:17.236Z,101682.50
2022-12-19T02:00:48.920Z,101675.25
2022-12-19T02:01:20.398Z,101676.06
2022-12-19T02:01:58.639Z,101675.25
2022-12-19T02:02:36.004Z,101683.00
2022-12-19T02:03:28.719Z,101681.94
2022-12-19T02:04:02.551Z,101673.09
2022-12-19T02:04:35.136Z,101673.88
2022-12-19T02:05:07.296Z,101672.00
2022-12-19T02:05:40.116Z,101665.81
2022-12-19T02:06:13.416Z,101670.09
2022-12-19T02:06:44.932Z,101670.09
2022-12-19T02:07:20.159Z,101659.66
2022-12-19T02:07:52.914Z,101663.66
2022-12-19T02:08:24.790Z,101666.84
2022-12-19T02:09:47.611Z,101671.13
2022-12-19T02:10:23.776Z,101668.44
2022-12-19T02:10:55.097Z,101670.03
2022-12-19T02:11:26.421Z,101671.94
2022-12-19T02:12:00.041Z,101671.13
2022-12-19T02:12:35.677Z,101672.72
2022-12-19T02:13:08.031Z,101671.13
2022-12-19T02:13:40.767Z,101672.44
2022-12-19T02:14:14.893Z,101662.00
2022-12-19T02:14:47.038Z,101672.94
2022-12-19T02:15:18.624Z,101659.81
2022-12-19T02:16:19.874Z,101667.78
2022-12-19T02:17:22.879Z,101673.16
2022-12-19T02:18:24.087Z,101668.00
2022-12-19T02:19:14.568Z,101663.72
2022-12-19T02:20:07.664Z,101664.50
2022-12-19T02:21:09.949Z,101658.06
2022-12-19T02:22:08.237Z,101654.28
2022-12-19T02:23:01.113Z,101653.47
2022-12-19T02:23:47.385Z,101654.28
2022-12-19T02:24:46.540Z,101658.28
2022-12-19T02:25:48.454Z,101652.63
2022-12-19T02:26:23.990Z,101655.31
2022-12-19T02:27:17.950Z,101643.75
2022-12-19T02:28:04.517Z,101641.59
2022-12-19T02:28:59.596Z,101637.81
2022-12-19T02:29:52.032Z,101646.38
2022-12-19T02:30:35.726Z,101644.50
2022-12-19T02:31:58.845Z,101641.81
2022-12-19T02:32:43.304Z,101646.88
2022-12-19T02:33:20.589Z,101645.47
2022-12-19T02:34:03.113Z,101639.31
2022-12-19T02:34:34.447Z,101643.31
2022-12-19T02:35:20.044Z,101644.91
2022-12-19T02:35:54.740Z,101636.03
2022-12-19T02:36:42.051Z,101637.94
2022-12-19T02:37:28.179Z,101639.25
2022-12-19T02:38:03.637Z,101641.91
2022-12-19T02:39:00.976Z,101635.47
2022-12-19T02:39:42.664Z,101631.19
2022-12-19T02:41:06.519Z,101631.09
2022-12-19T02:41:57.289Z,101625.94
2022-12-19T02:42:32.615Z,101624.88
2022-12-19T02:43:06.533Z,101622.97
2022-12-19T02:43:42.632Z,101628.06
2022-12-19T02:44:37.861Z,101629.31
2022-12-19T02:45:28.590Z,101617.81
2022-12-19T02:46:02.849Z,101620.19
2022-12-19T02:46:34.809Z,101625.25
2022-12-19T02:47:07.568Z,101618.00
2022-12-19T02:47:39.670Z,101618.78
2022-12-19T02:48:16.158Z,101619.88
2022-12-19T02:48:51.605Z,101615.31
2022-12-19T02:49:30.638Z,101609.34
2022-12-19T02:50:04.431Z,101607.16
2022-12-19T02:50:41.521Z,101607.97
2022-12-19T02:51:12.840Z,101595.34
2022-12-19T02:51:44.318Z,101605.78
2022-12-19T02:52:21.338Z,101608.97
2022-12-19T02:52:52.722Z,101595.53
2022-12-19T02:53:24.302Z,101598.22
2022-12-19T02:53:55.966Z,101595.53
2022-12-19T02:54:27.380Z,101595.03
2022-12-19T02:55:11.410Z,101587.19
2022-12-19T02:56:10.826Z,101594.16
2022-12-19T02:56:50.748Z,101589.59
2022-12-19T02:57:40.837Z,101579.63
2022-12-19T02:58:18.073Z,101591.97
2022-12-19T02:59:38.999Z,101597.34
2022-12-19T03:00:24.326Z,101581.69
2022-12-19T03:03:12.526Z,101591.34
2022-12-19T03:03:59.541Z,101599.41
2022-12-19T03:04:40.108Z,101582.50
2022-12-19T03:05:19.981Z,101593.75
2022-12-19T03:06:09.583Z,101583.31
2022-12-19T03:06:49.618Z,101579.53
2022-12-19T03:07:33.407Z,101589.19
2022-12-19T03:08:23.425Z,101578.44
2022-12-19T03:09:14.027Z,101580.31
2022-12-19T03:09:57.680Z,101577.63
2022-12-19T03:10:46.022Z,101579.72
2022-12-19T03:11:17.668Z,101575.16
2022-12-19T03:11:54.058Z,101577.84
2022-12-19T03:12:36.072Z,101587.50
2022-12-19T03:13:21.307Z,101582.91
2022-12-19T03:14:22.720Z,101587.50
2022-12-19T03:14:56.877Z,101586.69
2022-12-19T03:15:29.144Z,101582.13
2022-12-19T03:16:02.557Z,101587.19
2022-12-19T03:16:36.317Z,101577.53
2022-12-19T03:17:08.505Z,101582.63
2022-12-19T03:17:40.315Z,101581.81
2022-12-19T03:18:12.048Z,101578.25
2022-12-19T03:18:44.225Z,101575.28
2022-12-19T03:19:16.760Z,101579.56
2022-12-19T03:19:48.344Z,101573.88
2022-12-19T03:20:28.725Z,101580.06
2022-12-19T03:21:06.710Z,101579.56
2022-12-19T03:21:45.321Z,101577.38
2022-12-19T03:22:16.810Z,101568.81
2022-12-19T03:22:48.274Z,101573.09
2022-12-19T03:23:20.487Z,101562.34
2022-12-19T03:23:55.018Z,101564.53
2022-12-19T03:24:27.163Z,101563.44
2022-12-19T03:24:58.553Z,101566.63
2022-12-19T03:25:31.062Z,101575.16
2022-12-19T03:26:09.720Z,101575.66
2022-12-19T03:26:47.065Z,101569.19
2022-12-19T03:27:28.230Z,101571.88
2022-12-19T03:28:03.415Z,101570.78
2022-12-19T03:28:50.545Z,101568.88
2022-12-19T03:29:29.271Z,101572.06
2022-12-19T03:30:05.859Z,101576.38
2022-12-19T03:30:41.170Z,101580.66
2022-12-19T03:31:14.940Z,101580.66
2022-12-19T03:31:47.245Z,101579.03
2022-12-19T03:32:20.669Z,101574.47
2022-12-19T03:32:52.921Z,101570.97
2022-12-19T03:33:27.624Z,101575.78
2022-12-19T03:34:10.009Z,101567.69
2022-12-19T03:34:53.729Z,101567.41
2022-12-19T03:35:28.949Z,101568.72
2022-12-19T03:36:05.263Z,101567.59
2022-12-19T03:36:42.746Z,101574.28
2022-12-19T03:37:36.173Z,101571.28
2022-12-19T03:38:11.172Z,101572.88
2022-12-19T03:38:46.237Z,101568.28
2022-12-19T03:39:20.792Z,101569.09
2022-12-19T03:40:00.730Z,101564.78
2022-12-19T03:40:35.978Z,101561.81
2022-12-19T03:41:10.825Z,101556.44
2022-12-19T03:42:02.922Z,101555.63
2022-12-19T03:42:56.523Z,101564.19
2022-12-19T03:43:29.256Z,101562.00
2022-12-19T03:44:01.544Z,101560.13
2022-12-19T03:44:36.840Z,101552.56
2022-12-19T03:45:09.348Z,101560.31
2022-12-19T03:46:00.422Z,101563.00
2022-12-19T03:46:32.707Z,101557.63
2022-12-19T03:47:13.393Z,101554.16
2022-12-19T03:47:50.862Z,101554.94
2022-12-19T03:48:45.251Z,101555.25
2022-12-19T03:49:16.800Z,101547.97
2022-12-19T03:49:48.781Z,101557.34
2022-12-19T03:50:22.225Z,101556.84
2022-12-19T03:51:35.067Z,101554.94
2022-12-19T03:52:21.325Z,101552.25
2022-12-19T03:53:03.632Z,101544.19
2022-12-19T03:53:34.920Z,101544.19
2022-12-19T03:54:23.359Z,101548.47
2022-12-19T03:55:06.389Z,101554.16
2022-12-19T03:55:53.329Z,101549.25
2022-12-19T03:56:50.982Z,101552.75
2022-12-19T03:57:34.160Z,101550.38
2022-12-19T03:58:26.597Z,101551.66
2022-12-19T03:59:05.031Z,101553.25
2022-12-19T03:59:48.052Z,101536.63
2022-12-19T04:00:21.191Z,101538.72
2022-12-19T04:00:54.566Z,101547.56
2022-12-19T04:01:28.313Z,101548.06
2022-12-19T04:02:01.643Z,101538.09
2022-12-19T04:02:38.128Z,101531.44
2022-12-19T04:03:10.394Z,101538.88
2022-12-19T04:03:42.075Z,101532.69
2022-12-19T04:04:14.808Z,101525.94
2022-12-19T04:04:52.153Z,101539.38
2022-12-19T04:05:26.817Z,101531.59
2022-12-19T04:06:00.886Z,101527.03
2022-12-19T04:06:34.098Z,101532.41
2022-12-19T04:07:06.989Z,101534.78
2022-12-19T04:07:40.165Z,101536.38
2022-12-19T04:08:11.948Z,101527.22
2022-12-19T04:08:44.088Z,101523.72
2022-12-19T04:09:22.393Z,101532.31
2022-12-19T04:09:55.800Z,101537.88
2022-12-19T04:10:28.810Z,101534.88
2022-12-19T04:11:14.041Z,101536.47
2022-12-19T04:11:51.645Z,101536.00
2022-12-19T04:12:30.354Z,101541.06
2022-12-19T04:13:09.223Z,101537.59
2022-12-19T04:13:50.123Z,101531.41
2022-12-19T04:14:30.724Z,101529.22
2022-12-19T04:15:03.260Z,101536.97
2022-12-19T04:15:51.250Z,101531.31
2022-12-19T04:16:52.262Z,101530.66
2022-12-19T04:17:42.001Z,101528.78
2022-12-19T04:18:14.317Z,101534.16
2022-12-19T04:18:53.224Z,101522.59
2022-12-19T04:19:36.440Z,101528.78
2022-12-19T04:20:16.771Z,101526.56
2022-12-19T04:20:58.503Z,101528.16
2022-12-19T04:21:38.534Z,101515.31
2022-12-19T04:22:43.826Z,101525.47
2022-12-19T04:23:22.067Z,101519.59
2022-12-19T04:24:03.413Z,101515.03
2022-12-19T04:24:38.862Z,101517.72
2022-12-19T04:25:14.441Z,101513.13
2022-12-19T04:25:51.735Z,101516.63
2022-12-19T04:26:24.372Z,101520.59
2022-12-19T04:26:58.489Z,101523.28
2022-12-19T04:27:34.014Z,101530.56
2022-12-19T04:28:20.261Z,101525.97
2022-12-19T04:28:58.809Z,101531.34
2022-12-19T04:29:34.103Z,101531.34
2022-12-19T04:30:06.300Z,101534.84
2022-12-19T04:30:39.658Z,101532.47
2022-12-19T04:31:13.906Z,101530.38
2022-12-19T04:31:46.168Z,101522.00
2022-12-19T04:32:19.108Z,101529.75
2022-12-19T04:32:51.206Z,101526.28
2022-12-19T04:33:22.744Z,101507.75
2022-12-19T04:33:54.189Z,101518.22
2022-12-19T04:34:25.757Z,101517.59
2022-12-19T04:34:59.994Z,101526.16
2022-12-19T04:35:31.475Z,101528.56
2022-12-19T04:36:03.081Z,101524.28
2022-12-19T04:36:34.645Z,101524.78
2022-12-19T04:37:06.565Z,101534.13
2022-12-19T04:37:38.533Z,101522.38
2022-12-19T04:38:09.979Z,101523.97
2022-12-19T04:38:41.586Z,101523.19
2022-12-19T04:39:13.020Z,101517.50
2022-12-19T04:39:44.505Z,101509.22
2022-12-19T04:40:15.958Z,101515.59
2022-12-19T04:40:47.389Z,101513.22
2022-12-19T04:41:18.875Z,101517.19
2022-12-19T04:41:50.237Z,101518.28
2022-12-19T04:42:21.893Z,101517.50
2022-12-19T04:42:53.317Z,101513.41
2022-12-19T04:43:24.929Z,101517.69
2022-12-19T04:43:56.329Z,101516.09
2022-12-19T04:44:27.728Z,101515.78
2022-12-19T04:44:59.094Z,101514.69
2022-12-19T04:45:30.559Z,101512.00
2022-12-19T04:46:02.548Z,101512.66
2022-12-19T04:47:23.067Z,101520.44
2022-12-19T04:47:54.627Z,101519.63
2022-12-19T04:48:26.430Z,101518.84
2022-12-19T04:48:57.797Z,101518.84
2022-12-19T04:49:29.311Z,101507.59
2022-12-19T04:50:00.908Z,101506.19
2022-12-19T04:50:33.175Z,101510.47
2022-12-19T04:51:04.646Z,101513.16
2022-12-19T04:51:36.120Z,101508.88
2022-12-19T04:52:08.000Z,101501.28
2022-12-19T04:52:39.428Z,101510.16
2022-12-19T04:53:10.876Z,101506.38
2022-12-19T04:53:42.777Z,101498.59
2022-12-19T04:54:14.210Z,101496.69
2022-12-19T04:54:45.558Z,101500.19
2022-12-19T04:55:16.919Z,101503.88
2022-12-19T04:55:48.339Z,101499.09
2022-12-19T04:56:19.744Z,101504.16
2022-12-19T04:56:53.314Z,101504.34
2022-12-19T04:57:24.714Z,101500.06
2022-12-19T04:57:56.130Z,101503.56
2022-12-19T04:58:29.989Z,101497.38
2022-12-19T04:59:01.541Z,101504.34
2022-12-19T04:59:33.079Z,101507.53
2022-12-19T05:00:07.046Z,101497.56
2022-12-19T05:00:38.450Z,101504.56
2022-12-19T05:01:10.100Z,101490.00
2022-12-19T05:01:41.569Z,101500.41
2022-12-19T05:02:13.178Z,101504.72
2022-12-19T05:02:45.598Z,101501.56
2022-12-19T05:03:17.140Z,101495.03
2022-12-19T05:03:54.264Z,101499.81
2022-12-19T05:04:26.684Z,101492.84
2022-12-19T05:04:58.619Z,101497.91
2022-12-19T05:05:30.001Z,101494.44
2022-12-19T05:06:10.036Z,101492.22
2022-12-19T05:06:41.441Z,101497.63
2022-12-19T05:07:15.970Z,101490.34
2022-12-19T05:07:47.444Z,101509.19
2022-12-19T05:08:18.851Z,101497.63
2022-12-19T05:08:50.222Z,101500.31
2022-12-19T05:09:21.682Z,101503.00
2022-12-19T05:09:53.278Z,101498.72
2022-12-19T05:10:24.880Z,101503.50
2022-12-19T05:11:00.632Z,101497.31
2022-12-19T05:11:32.089Z,101494.91
2022-12-19T05:12:03.739Z,101490.94
2022-12-19T05:12:35.129Z,101498.09
2022-12-19T05:13:06.508Z,101499.50
2022-12-19T05:13:38.068Z,101491.13
2022-12-19T05:14:10.131Z,101499.22
2022-12-19T05:14:41.556Z,101493.53
2022-12-19T05:15:12.935Z,101496.41
2022-12-19T05:15:44.305Z,101493.22
2022-12-19T05:16:16.315Z,101495.28
2022-12-19T05:16:47.714Z,101499.59
2022-12-19T05:17:19.389Z,101496.09
2022-12-19T05:17:50.792Z,101484.53
2022-12-19T05:18:22.180Z,101487.53
2022-12-19T05:18:54.205Z,101485.63
2022-12-19T05:19:25.583Z,101486.91
2022-12-19T05:19:57.015Z,101489.59
2022-12-19T05:20:28.504Z,101482.63
2022-12-19T05:21:00.412Z,101493.09
2022-12-19T05:21:31.749Z,101488.50
2022-12-19T05:22:03.122Z,101483.44
2022-12-19T05:22:34.964Z,101489.78
2022-12-19T05:23:12.076Z,101481.38
2022-12-19T05:23:47.620Z,101487.25
2022-12-19T05:24:19.012Z,101476.00
2022-12-19T05:24:50.342Z,101484.56
2022-12-19T05:25:21.759Z,101480.78
2022-12-19T05:25:53.240Z,101478.88
2022-12-19T05:26:24.876Z,101485.06
2022-12-19T05:26:56.242Z,101474.28
2022-12-19T05:27:27.569Z,101482.53
2022-12-19T05:27:58.893Z,101479.97
2022-12-19T05:28:30.986Z,101483.66
2022-12-19T05:29:02.563Z,101480.47
2022-12-19T05:29:34.724Z,101484.44
2022-12-19T05:30:06.759Z,101479.66
2022-12-19T05:30:38.218Z,101479.66
2022-12-19T05:31:15.098Z,101479.84
2022-12-19T05:31:46.614Z,101482.22
2022-12-19T05:32:18.139Z,101480.81
2022-12-19T05:32:49.521Z,101480.81
2022-12-19T05:33:20.920Z,101485.13
2022-12-19T05:33:52.355Z,101473.84
2022-12-19T05:34:24.759Z,101472.44
2022-12-19T05:34:56.172Z,101475.94
2022-12-19T05:35:27.770Z,101467.06
2022-12-19T05:35:59.312Z,101488.78
2022-12-19T05:36:32.627Z,101476.91
2022-12-19T05:37:04.407Z,101483.41
2022-12-19T05:37:35.803Z,101483.41
2022-12-19T05:38:07.362Z,101468.81
2022-12-19T05:38:38.881Z,101476.13
2022-12-19T05:39:11.695Z,101474.22
2022-12-19T05:39:43.124Z,101478.97
2022-12-19T05:40:14.566Z,101479.75
2022-12-19T05:40:45.985Z,101471.66
2022-12-19T05:41:19.548Z,101479.94
2022-12-19T05:41:51.064Z,101471.84
2022-12-19T05:42:22.399Z,101469.66
2022-12-19T05:42:53.858Z,101475.53
2022-12-19T05:43:25.243Z,101467.44
2022-12-19T05:43:56.812Z,101478.69
2022-12-19T05:44:28.239Z,101475.53
2022-12-19T05:44:59.586Z,101475.53
2022-12-19T05:45:30.957Z,101479.19
2022-12-19T05:46:04.539Z,101480.47
2022-12-19T05:46:36.143Z,101482.84
2022-12-19T05:47:08.180Z,101480.16
2022-12-19T05:47:39.501Z,101470.81
2022-12-19T05:48:10.843Z,101471.91
2022-12-19T05:48:42.245Z,101474.91
2022-12-19T05:49:16.997Z,101475.88
2022-12-19T05:49:48.576Z,101483.97
2022-12-19T05:50:20.181Z,101470.81
2022-12-19T05:50:51.558Z,101468.91
2022-12-19T05:51:23.030Z,101475.88
2022-12-19T05:51:54.381Z,101468.91
2022-12-19T05:52:25.783Z,101468.91
2022-12-19T05:52:57.353Z,101475.88
2022-12-19T05:53:29.306Z,101480.63
2022-12-19T05:54:01.135Z,101487.91
2022-12-19T05:54:32.552Z,101489.50
2022-12-19T05:55:05.427Z,101492.19
2022-12-19T05:55:36.811Z,101485.22
2022-12-19T05:56:11.755Z,101477.94
2022-12-19T05:56:43.296Z,101480.63
2022-12-19T05:57:14.658Z,101470.63
2022-12-19T05:57:46.077Z,101471.44
2022-12-19T05:58:19.102Z,101472.22
2022-12-19T05:58:50.556Z,101474.94
2022-12-19T05:59:21.910Z,101477.78
2022-12-19T05:59:53.310Z,101478.28
2022-12-19T06:00:25.625Z,101483.69
2022-12-19T06:01:02.786Z,101487.47
2022-12-19T06:01:53.568Z,101487.97
2022-12-19T06:02:25.729Z,101486.84
2022-12-19T06:02:57.394Z,101483.38
2022-12-19T06:03:28.827Z,101484.97
2022-12-19T06:04:00.197Z,101479.56
2022-12-19T06:04:31.642Z,101482.75
2022-12-19T06:05:03.184Z,101480.34
2022-12-19T06:05:37.317Z,101478.16
2022-12-19T06:06:12.195Z,101479.75
2022-12-19T06:06:43.766Z,101487.03
2022-12-19T06:07:20.596Z,101485.63
2022-12-19T06:07:52.309Z,101476.56
2022-12-19T06:08:23.675Z,101484.81
2022-12-19T06:08:56.568Z,101481.34
2022-12-19T06:09:28.012Z,101482.94
2022-12-19T06:09:59.408Z,101488.00
2022-12-19T06:10:30.822Z,101491.00
2022-12-19T06:11:05.205Z,101496.53
2022-12-19T06:11:36.675Z,101487.66
2022-12-19T06:12:08.059Z,101483.41
2022-12-19T06:12:39.562Z,101490.06
2022-12-19T06:13:10.995Z,101489.25
2022-12-19T06:13:42.392Z,101488.94
2022-12-19T06:14:13.754Z,101484.34
2022-12-19T06:14:45.103Z,101483.25
2022-12-19T06:15:16.782Z,101484.03
2022-12-19T06:15:48.201Z,101483.72
2022-12-19T06:16:21.492Z,101488.50
2022-12-19T06:16:53.089Z,101491.69
2022-12-19T06:17:24.923Z,101480.59
2022-12-19T06:17:56.356Z,101482.97
2022-12-19T06:18:28.389Z,101488.06
2022-12-19T06:18:59.808Z,101479.78
2022-12-19T06:19:31.353Z,101478.69
2022-12-19T06:20:02.776Z,101477.59
2022-12-19T06:20:34.157Z,101484.56
2022-12-19T06:21:08.229Z,101486.16
2022-12-19T06:21:45.545Z,101478.88
2022-12-19T06:22:19.198Z,101480.59
2022-12-19T06:22:50.727Z,101476.78
2022-12-19T06:23:22.950Z,101471.72
2022-12-19T06:23:55.002Z,101473.78
2022-12-19T06:24:26.405Z,101473.78
2022-12-19T06:24:57.722Z,101475.38
2022-12-19T06:25:29.687Z,101475.56
2022-12-19T06:26:02.581Z,101462.06
2022-12-19T06:26:33.944Z,101472.22
2022-12-19T06:27:05.523Z,101474.31
2022-12-19T06:27:36.857Z,101468.59
2022-12-19T06:28:08.191Z,101465.91
2022-12-19T06:28:40.074Z,101469.09
2022-12-19T06:29:11.490Z,101471.78
2022-12-19T06:29:42.881Z,101469.41
2022-12-19T06:30:15.268Z,101472.88
2022-12-19T06:30:47.168Z,101470.50
2022-12-19T06:31:23.524Z,101475.25
2022-12-19T06:31:56.166Z,101467.94
2022-12-19T06:32:27.536Z,101464.63
2022-12-19T06:32:58.973Z,101465.41
2022-12-19T06:33:31.881Z,101463.19
2022-12-19T06:34:03.293Z,101464.00
2022-12-19T06:35:02.841Z,101470.66
2022-12-19T06:35:26.286Z,101469.25
2022-12-19T06:36:01.941Z,101472.13
2022-12-19T06:36:33.509Z,101470.22
2022-12-19T06:37:08.141Z,101472.91
2022-12-19T06:37:39.887Z,101471.00
2022-12-19T06:38:11.225Z,101471.50
2022-12-19T06:38:42.650Z,101475.75
2022-12-19T06:39:15.384Z,101475.75
2022-12-19T06:39:46.734Z,101472.59
2022-12-19T06:40:38.084Z,101471.94
2022-12-19T06:41:29.287Z,101477.81
2022-12-19T06:42:19.361Z,101477.81
2022-12-19T06:42:50.932Z,101477.97
2022-12-19T06:43:26.028Z,101479.56
2022-12-19T06:43:58.828Z,101478.47
2022-12-19T06:44:31.801Z,101468.16
2022-12-19T06:45:03.602Z,101465.44
2022-12-19T06:45:35.061Z,101463.22
2022-12-19T06:46:07.021Z,101469.28
2022-12-19T06:46:38.569Z,101467.38
2022-12-19T06:47:10.013Z,101478.16